Aeroporto :
LOGIN :

Iscrizione | Disclaimer

   EN    FR    IT 

 










Sommario :    VFR   VFR Marginale   IFR   IFR Intensivo   IFR Molto Intensivo
Visibilità : 
Base nubi : 
>= 8 km
>= 3000ft
5 / 8 km
1000 / 3000 ft
1500m / 5 km
500 / 1000 ft
800 / 1500m
200 / 500 ft
< 800m
< 200 ft
Simboli :   Temporali  Nebbia  Neve Forte  Precipitazioni Forti  Vento > 20 kt
SIGMETs :   Varie  Temporali  Ghiacco  Turbolenza  Onda orograficha  Ceneri Vulcaniche






- Altitudine del aeroporto : 436 ft
- Codice IATA : BTS


LZIB - Bratislava

ULTIMO METAR :
  • 220300Z 04006KT CAVOK 12/10 Q1021

METARs OBSOLETI :
  • 220230Z 03006KT CAVOK 12/11 Q1021
  • 220200Z 05007KT CAVOK 12/10 Q1021
  • 220130Z 03007KT CAVOK 13/11 Q1021
  • 220100Z 03007KT CAVOK 14/11 Q1021
  • 220030Z 03007KT CAVOK 13/11 Q1021

TAF TAF LZIB
Valido dal 22 a 00 ore il 23 a 00 ore UTC


212300Z 2200/2300 03006KT CAVOK
TEMPO 2201/2207 VRB02KT 1200 BR SCT002
BECMG 2207/2209 9999 FEW038
BECMG 2218/2220 VRB02KT
BECMG 2221/2223 4000 BR NSC



MetMap, La meteo Aeronautica in un colpo d'occhio ! - Copyright ORBIFLY Dicembre 2007 - Disclaimer

ORBIFLY MET'MAP TEAM :

Programmazione e sviluppo : Alexandra Zaïnal
Concezione e sviluppo : Baudouin d'Aumeries
Co-Programmazione e sviluppo : Marc-Olivier Méhu
Supporto tecnico e logistico : Manuel Goepfert
Aiuto per la traduzione : Arnaldo La Scala

Contatto : metmap@orbifly.com




FONTI E CREDITI :

   NOAA